Coeur D'Alene - Pappy Boyington Field
KCOE : rendu visible

Aérodrome :











RETROUVEZ-NOUS SUR...

 
LOGIN :

S'inscrire | Disclaimer

   EN    FR    IT 

 









Légende :    VFR   VFR Marginal   IFR   IFR Intensif   IFR Très Intensif
Visi : 
Plafond : 
>= 8 km
>= 3000ft
5 à 8 km
1000 à 3000 ft
1500m à 5 km
500 à 1000 ft
800 à 1500m
200 à 500 ft
< 800m
< 200 ft
Symboles :   Orages  Brouillard  Fortes neiges  Fortes précipitations  Vent > 20 kt






- Altitude de l'aérodrome : 2320 ft


KCOE - Coeur D'Alene - Pappy Boyington Field

DERNIER METAR :
  • 180956Z AUTO 04005KT 10SM BKN040 OVC046 M05/M06 A3028 RMK AO2 SLP304 T10501061 FZRANO

METARs EXPIRÉS :
  • 180856Z AUTO 04007KT 10SM BKN038 OVC047 M04/M05 A3027 RMK AO2 SLP299 60000 T10391050 51005 FZRANO
  • 180756Z AUTO 03007KT 10SM BKN036 OVC048 M04/M05 A3027 RMK AO2 SNE0657 SLP300 T10391050 400111111 FZRANO

TAF KCOE
Valide du 18 à 06h jusqu'au 19 à 06h UTC


180532Z 1806/1906 05004KT 6SM BR VCSH SCT020 OVC045
FM181200 09005KT 2SM -SN BR SCT015 OVC025
FM181800 09006KT 3/4SM -SN SCT007 BKN015 OVC035
TEMPO 1818/1822 1/2SM SN BKN007 OVC015
FM190200 15005KT 6SM -SN SCT007 SCT015 BKN029



MET'MAP, la Météo Aéronautique d'un coup d'oeil ! - Copyright ORBIFLY Décembre 2007 - Disclaimer

ORBIFLY MET'MAP TEAM :

Programmation & Développement : Alexandra Zaïnal
Sur une idée originale de : Baudouin d'Aumeries
Assistance à la programmation : Marc-Olivier Méhu
Soutien technique & logistique : Manuel Goepfert

Contact : metmap@orbifly.com




SOURCES & CREDITS :

   NOAA       Earth
Advisory